sensor_id;sensor_type;location;lat;lon;timestamp;pressure;altitude;pressure_sealevel;temperature;humidity
71764;BME280;59602;52.142;5.408;2023-05-10T01:09:45;100964.91;;;13.70;96.39
71764;BME280;59602;52.142;5.408;2023-05-10T01:54:09;100967.66;;;13.67;97.32
71764;BME280;59602;52.142;5.408;2023-05-10T01:57:50;100962.19;;;13.67;97.22
71764;BME280;59602;52.142;5.408;2023-05-10T03:00:51;101000.09;;;13.50;97.15
71764;BME280;59602;52.142;5.408;2023-05-10T03:04:28;101004.81;;;13.46;97.06
71764;BME280;59602;52.142;5.408;2023-05-10T03:35:59;101015.38;;;13.30;97.37
71764;BME280;59602;52.142;5.408;2023-05-10T03:52:51;101019.28;;;13.40;96.69
71764;BME280;59602;52.142;5.408;2023-05-10T04:19:07;101025.53;;;13.33;97.41
71764;BME280;59602;52.142;5.408;2023-05-10T04:48:26;101020.06;;;13.40;97.45
71764;BME280;59602;52.142;5.408;2023-05-10T04:59:43;101044.25;;;13.42;98.03
71764;BME280;59602;52.142;5.408;2023-05-10T05:02:20;101041.09;;;13.43;97.80
71764;BME280;59602;52.142;5.408;2023-05-10T05:21:32;101066.06;;;13.45;97.96
71764;BME280;59602;52.142;5.408;2023-05-10T05:28:41;101066.06;;;13.45;97.80
71764;BME280;59602;52.142;5.408;2023-05-10T05:31:10;101063.75;;;13.40;97.74
71764;BME280;59602;52.142;5.408;2023-05-10T05:33:59;101072.31;;;13.46;98.13
71764;BME280;59602;52.142;5.408;2023-05-10T05:37:23;101075.03;;;13.46;98.02
71764;BME280;59602;52.142;5.408;2023-05-10T05:45:49;101076.59;;;13.54;98.30
71764;BME280;59602;52.142;5.408;2023-05-10T05:48:47;101079.75;;;13.49;97.83
71764;BME280;59602;52.142;5.408;2023-05-10T05:51:42;101086.78;;;13.46;97.97
71764;BME280;59602;52.142;5.408;2023-05-10T05:54:25;101082.47;;;13.45;97.98
71764;BME280;59602;52.142;5.408;2023-05-10T05:56:55;101091.03;;;13.44;97.96
71764;BME280;59602;52.142;5.408;2023-05-10T05:59:38;101091.44;;;13.42;97.79
71764;BME280;59602;52.142;5.408;2023-05-10T06:02:15;101090.28;;;13.40;97.29
71764;BME280;59602;52.142;5.408;2023-05-10T06:04:59;101100.03;;;13.37;97.25
71764;BME280;59602;52.142;5.408;2023-05-10T06:07:25;101099.25;;;13.37;96.91
71764;BME280;59602;52.142;5.408;2023-05-10T06:10:12;101104.72;;;13.37;96.94
71764;BME280;59602;52.142;5.408;2023-05-10T06:12:43;101102.38;;;13.39;96.99
71764;BME280;59602;52.142;5.408;2023-05-10T06:15:12;101105.13;;;13.35;97.20
71764;BME280;59602;52.142;5.408;2023-05-10T06:17:41;101105.88;;;13.39;97.24
71764;BME280;59602;52.142;5.408;2023-05-10T06:20:14;101110.97;;;13.41;96.97
71764;BME280;59602;52.142;5.408;2023-05-10T06:23:03;101113.28;;;13.39;96.91
71764;BME280;59602;52.142;5.408;2023-05-10T06:25:30;101119.53;;;13.39;96.89
71764;BME280;59602;52.142;5.408;2023-05-10T06:27:56;101113.69;;;13.41;96.70
71764;BME280;59602;52.142;5.408;2023-05-10T06:30:27;101117.97;;;13.45;96.78
71764;BME280;59602;52.142;5.408;2023-05-10T06:32:55;101121.09;;;13.47;96.56
71764;BME280;59602;52.142;5.408;2023-05-10T06:35:23;101117.22;;;13.48;96.72
71764;BME280;59602;52.142;5.408;2023-05-10T06:37:50;101121.88;;;13.48;96.26
71764;BME280;59602;52.142;5.408;2023-05-10T06:40:17;101120.72;;;13.49;96.09
71764;BME280;59602;52.142;5.408;2023-05-10T06:42:46;101114.84;;;13.47;96.27
71764;BME280;59602;52.142;5.408;2023-05-10T06:45:13;101118.75;;;13.49;95.97
71764;BME280;59602;52.142;5.408;2023-05-10T06:47:41;101120.31;;;13.47;96.10
71764;BME280;59602;52.142;5.408;2023-05-10T06:50:09;101131.25;;;13.47;96.04
71764;BME280;59602;52.142;5.408;2023-05-10T06:52:36;101130.47;;;13.46;95.66
71764;BME280;59602;52.142;5.408;2023-05-10T06:55:03;101132.41;;;13.49;95.61
71764;BME280;59602;52.142;5.408;2023-05-10T06:57:31;101138.25;;;13.52;95.37
71764;BME280;59602;52.142;5.408;2023-05-10T06:59:58;101132.03;;;13.51;95.17
71764;BME280;59602;52.142;5.408;2023-05-10T07:02:25;101139.81;;;13.53;95.14
71764;BME280;59602;52.142;5.408;2023-05-10T07:04:52;101142.16;;;13.54;94.48
71764;BME280;59602;52.142;5.408;2023-05-10T07:07:18;101141.78;;;13.56;94.60
71764;BME280;59602;52.142;5.408;2023-05-10T07:12:13;101141.38;;;13.57;94.53
71764;BME280;59602;52.142;5.408;2023-05-10T07:15:09;101151.94;;;13.55;93.99
71764;BME280;59602;52.142;5.408;2023-05-10T07:17:44;101151.94;;;13.52;94.17
71764;BME280;59602;52.142;5.408;2023-05-10T07:20:12;101149.19;;;13.55;94.47
71764;BME280;59602;52.142;5.408;2023-05-10T07:22:40;101157.41;;;13.55;94.05
71764;BME280;59602;52.142;5.408;2023-05-10T07:25:07;101151.53;;;13.49;94.29
71764;BME280;59602;52.142;5.408;2023-05-10T07:27:33;101149.56;;;13.50;93.80
71764;BME280;59602;52.142;5.408;2023-05-10T07:30:00;101160.91;;;13.52;93.42
71764;BME280;59602;52.142;5.408;2023-05-10T07:32:28;101159.31;;;13.55;93.77
71764;BME280;59602;52.142;5.408;2023-05-10T07:34:55;101172.22;;;13.58;93.63
71764;BME280;59602;52.142;5.408;2023-05-10T07:37:22;101173.38;;;13.60;92.91
71764;BME280;59602;52.142;5.408;2023-05-10T07:39:48;101170.25;;;13.65;93.07
71764;BME280;59602;52.142;5.408;2023-05-10T07:42:34;101165.19;;;13.71;93.40
71764;BME280;59602;52.142;5.408;2023-05-10T07:45:03;101172.59;;;13.78;92.60
71764;BME280;59602;52.142;5.408;2023-05-10T07:47:30;101182.34;;;13.82;93.31
71764;BME280;59602;52.142;5.408;2023-05-10T07:49:57;101179.59;;;13.89;93.18
71764;BME280;59602;52.142;5.408;2023-05-10T07:52:58;101186.22;;;13.92;92.24
71764;BME280;59602;52.142;5.408;2023-05-10T07:55:27;101183.09;;;13.90;91.51
71764;BME280;59602;52.142;5.408;2023-05-10T07:57:53;101189.72;;;13.93;92.02
71764;BME280;59602;52.142;5.408;2023-05-10T08:00:22;101191.28;;;13.90;91.34
71764;BME280;59602;52.142;5.408;2023-05-10T08:03:12;101190.91;;;13.88;92.65
71764;BME280;59602;52.142;5.408;2023-05-10T08:05:44;101191.28;;;13.90;92.40
71764;BME280;59602;52.142;5.408;2023-05-10T08:08:13;101197.94;;;13.89;90.15
71764;BME280;59602;52.142;5.408;2023-05-10T08:10:43;101201.84;;;13.88;90.47
71764;BME280;59602;52.142;5.408;2023-05-10T08:13:10;101194.06;;;13.86;89.76
71764;BME280;59602;52.142;5.408;2023-05-10T08:15:40;101201.47;;;13.82;89.59
71764;BME280;59602;52.142;5.408;2023-05-10T08:18:07;101204.97;;;13.83;90.67
71764;BME280;59602;52.142;5.408;2023-05-10T08:20:34;101206.53;;;13.87;91.48
71764;BME280;59602;52.142;5.408;2023-05-10T08:23:06;101209.66;;;13.89;91.74
71764;BME280;59602;52.142;5.408;2023-05-10T08:29:37;101208.47;;;13.90;91.45
71764;BME280;59602;52.142;5.408;2023-05-10T08:32:16;101210.03;;;13.95;91.43
71764;BME280;59602;52.142;5.408;2023-05-10T08:35:05;101212.00;;;13.95;91.12
71764;BME280;59602;52.142;5.408;2023-05-10T08:37:32;101218.25;;;13.91;91.09
71764;BME280;59602;52.142;5.408;2023-05-10T08:39:59;101222.16;;;13.90;90.43
71764;BME280;59602;52.142;5.408;2023-05-10T08:42:28;101232.31;;;13.94;90.86
71764;BME280;59602;52.142;5.408;2023-05-10T08:44:57;101244.81;;;13.98;90.60
71764;BME280;59602;52.142;5.408;2023-05-10T08:47:25;101235.41;;;14.03;89.62
71764;BME280;59602;52.142;5.408;2023-05-10T08:49:52;101237.34;;;14.06;88.98
71764;BME280;59602;52.142;5.408;2023-05-10T08:52:19;101241.28;;;14.05;88.21
71764;BME280;59602;52.142;5.408;2023-05-10T08:54:46;101244.00;;;14.01;89.50
71764;BME280;59602;52.142;5.408;2023-05-10T08:57:13;101242.06;;;14.05;89.76
71764;BME280;59602;52.142;5.408;2023-05-10T08:59:40;101243.59;;;14.06;88.85
71764;BME280;59602;52.142;5.408;2023-05-10T09:02:08;101242.81;;;14.13;88.49
71764;BME280;59602;52.142;5.408;2023-05-10T09:04:38;101247.09;;;14.21;88.62
71764;BME280;59602;52.142;5.408;2023-05-10T09:07:06;101243.19;;;14.29;88.02
71764;BME280;59602;52.142;5.408;2023-05-10T09:09:33;101250.97;;;14.35;89.01
71764;BME280;59602;52.142;5.408;2023-05-10T09:12:01;101247.44;;;14.45;88.74
71764;BME280;59602;52.142;5.408;2023-05-10T09:14:28;101246.22;;;14.53;89.34
71764;BME280;59602;52.142;5.408;2023-05-10T09:16:56;101243.50;;;14.60;89.04
71764;BME280;59602;52.142;5.408;2023-05-10T09:19:22;101240.34;;;14.65;87.61
71764;BME280;59602;52.142;5.408;2023-05-10T09:21:49;101244.63;;;14.73;86.54
71764;BME280;59602;52.142;5.408;2023-05-10T09:24:16;101253.56;;;14.78;84.71
71764;BME280;59602;52.142;5.408;2023-05-10T09:26:46;101256.69;;;14.83;85.24
71764;BME280;59602;52.142;5.408;2023-05-10T09:29:14;101256.31;;;14.85;84.47
71764;BME280;59602;52.142;5.408;2023-05-10T09:31:46;101259.38;;;14.90;84.98
71764;BME280;59602;52.142;5.408;2023-05-10T09:34:18;101260.50;;;15.00;83.92
71764;BME280;59602;52.142;5.408;2023-05-10T09:36:51;101261.66;;;15.10;85.07
71764;BME280;59602;52.142;5.408;2023-05-10T09:39:19;101261.16;;;15.22;84.34
71764;BME280;59602;52.142;5.408;2023-05-10T09:41:45;101265.41;;;15.34;83.88
71764;BME280;59602;52.142;5.408;2023-05-10T09:44:16;101275.56;;;15.41;82.57
71764;BME280;59602;52.142;5.408;2023-05-10T09:46:49;101269.25;;;15.47;83.11
71764;BME280;59602;52.142;5.408;2023-05-10T09:49:16;101277.47;;;15.47;81.60
71764;BME280;59602;52.142;5.408;2023-05-10T09:51:42;101274.75;;;15.44;81.98
71764;BME280;59602;52.142;5.408;2023-05-10T09:54:10;101285.31;;;15.38;81.21
71764;BME280;59602;52.142;5.408;2023-05-10T09:56:38;101286.16;;;15.31;83.36
71764;BME280;59602;52.142;5.408;2023-05-10T09:59:09;101288.56;;;15.26;82.49
71764;BME280;59602;52.142;5.408;2023-05-10T10:01:37;101297.16;;;15.24;82.68
71764;BME280;59602;52.142;5.408;2023-05-10T10:04:05;101293.66;;;15.20;82.84
71764;BME280;59602;52.142;5.408;2023-05-10T10:06:37;101295.22;;;15.21;82.76
71764;BME280;59602;52.142;5.408;2023-05-10T10:09:04;101295.22;;;15.21;84.55
71764;BME280;59602;52.142;5.408;2023-05-10T10:11:31;101299.91;;;15.24;84.48
71764;BME280;59602;52.142;5.408;2023-05-10T10:13:59;101292.06;;;15.26;83.52
71764;BME280;59602;52.142;5.408;2023-05-10T10:16:27;101294.34;;;15.39;84.79
71764;BME280;59602;52.142;5.408;2023-05-10T10:18:55;101300.50;;;15.53;84.74
71764;BME280;59602;52.142;5.408;2023-05-10T10:21:23;101298.09;;;15.63;84.51
71764;BME280;59602;52.142;5.408;2023-05-10T10:23:51;101306.69;;;15.65;82.02
71764;BME280;59602;52.142;5.408;2023-05-10T10:26:19;101301.19;;;15.68;83.79
71764;BME280;59602;52.142;5.408;2023-05-10T10:28:54;101307.44;;;15.69;83.52
71764;BME280;59602;52.142;5.408;2023-05-10T10:31:34;101303.56;;;15.63;82.29
71764;BME280;59602;52.142;5.408;2023-05-10T10:34:09;101305.97;;;15.61;81.63
71764;BME280;59602;52.142;5.408;2023-05-10T10:36:46;101314.94;;;15.61;82.31
71764;BME280;59602;52.142;5.408;2023-05-10T10:39:14;101309.47;;;15.61;82.00
71764;BME280;59602;52.142;5.408;2023-05-10T10:41:51;101307.13;;;15.56;80.47
71764;BME280;59602;52.142;5.408;2023-05-10T10:47:23;101309.09;;;15.59;82.27
71764;BME280;59602;52.142;5.408;2023-05-10T10:52:26;101310.63;;;15.60;80.92
71764;BME280;59602;52.142;5.408;2023-05-10T10:57:33;101309.03;;;15.66;80.84
71764;BME280;59602;52.142;5.408;2023-05-10T11:00:21;101316.06;;;15.74;81.78
71764;BME280;59602;52.142;5.408;2023-05-10T11:02:51;101305.44;;;15.80;82.23
71764;BME280;59602;52.142;5.408;2023-05-10T11:08:06;101316.00;;;15.78;81.25
71764;BME280;59602;52.142;5.408;2023-05-10T11:10:33;101312.53;;;15.70;81.40
71764;BME280;59602;52.142;5.408;2023-05-10T11:13:01;101327.81;;;15.68;82.67
71764;BME280;59602;52.142;5.408;2023-05-10T11:15:30;101316.16;;;15.56;80.43
71764;BME280;59602;52.142;5.408;2023-05-10T11:17:57;101313.81;;;15.51;80.70
71764;BME280;59602;52.142;5.408;2023-05-10T11:20:27;101319.31;;;15.51;82.34
71764;BME280;59602;52.142;5.408;2023-05-10T11:23:11;101319.31;;;15.51;82.79
71764;BME280;59602;52.142;5.408;2023-05-10T11:25:45;101320.09;;;15.52;83.08
71764;BME280;59602;52.142;5.408;2023-05-10T11:28:12;101329.13;;;15.49;81.37
71764;BME280;59602;52.142;5.408;2023-05-10T11:30:40;101326.38;;;15.49;81.37
71764;BME280;59602;52.142;5.408;2023-05-10T11:33:07;101325.09;;;15.64;82.31
71764;BME280;59602;52.142;5.408;2023-05-10T11:35:39;101319.47;;;15.89;81.48
71764;BME280;59602;52.142;5.408;2023-05-10T11:38:10;101320.06;;;16.11;82.10
71764;BME280;59602;52.142;5.408;2023-05-10T11:40:38;101323.75;;;16.35;79.99
71764;BME280;59602;52.142;5.408;2023-05-10T11:43:05;101328.75;;;16.48;77.50
71764;BME280;59602;52.142;5.408;2023-05-10T11:45:32;101325.25;;;16.44;76.99
71764;BME280;59602;52.142;5.408;2023-05-10T11:48:00;101320.91;;;16.46;78.27
71764;BME280;59602;52.142;5.408;2023-05-10T11:50:27;101325.53;;;16.53;78.90
71764;BME280;59602;52.142;5.408;2023-05-10T11:52:56;101328.22;;;16.56;77.42
71764;BME280;59602;52.142;5.408;2023-05-10T11:55:23;101328.22;;;16.56;78.58
71764;BME280;59602;52.142;5.408;2023-05-10T11:57:52;101325.53;;;16.53;78.59
71764;BME280;59602;52.142;5.408;2023-05-10T12:00:19;101330.75;;;16.44;77.76
71764;BME280;59602;52.142;5.408;2023-05-10T12:02:47;101331.22;;;16.35;79.62
71764;BME280;59602;52.142;5.408;2023-05-10T12:05:14;101338.69;;;16.34;79.69
71764;BME280;59602;52.142;5.408;2023-05-10T12:07:41;101338.31;;;16.32;80.81
71764;BME280;59602;52.142;5.408;2023-05-10T12:10:13;101333.97;;;16.31;80.93
71764;BME280;59602;52.142;5.408;2023-05-10T12:12:44;101337.88;;;16.34;81.18
71764;BME280;59602;52.142;5.408;2023-05-10T12:15:12;101332.00;;;16.35;78.67
71764;BME280;59602;52.142;5.408;2023-05-10T12:17:44;101343.00;;;16.32;77.65
71764;BME280;59602;52.142;5.408;2023-05-10T12:22:54;101331.50;;;16.44;78.02
71764;BME280;59602;52.142;5.408;2023-05-10T12:25:22;101338.44;;;16.56;76.70
71764;BME280;59602;52.142;5.408;2023-05-10T12:27:51;101333.25;;;16.65;76.60
71764;BME280;59602;52.142;5.408;2023-05-10T12:30:27;101334.34;;;16.71;77.60
71764;BME280;59602;52.142;5.408;2023-05-10T12:33:01;101333.50;;;16.78;77.20
71764;BME280;59602;52.142;5.408;2023-05-10T12:35:31;101322.81;;;16.87;77.75
71764;BME280;59602;52.142;5.408;2023-05-10T12:37:58;101328.16;;;17.01;76.55
71764;BME280;59602;52.142;5.408;2023-05-10T12:40:24;101325.34;;;17.05;73.94
71764;BME280;59602;52.142;5.408;2023-05-10T12:42:51;101330.53;;;16.99;73.95
71764;BME280;59602;52.142;5.408;2023-05-10T12:45:18;101330.94;;;16.98;73.80
71764;BME280;59602;52.142;5.408;2023-05-10T12:47:45;101326.59;;;17.00;74.45
71764;BME280;59602;52.142;5.408;2023-05-10T12:50:11;101330.81;;;17.09;74.75
71764;BME280;59602;52.142;5.408;2023-05-10T12:52:38;101335.81;;;17.17;76.23
71764;BME280;59602;52.142;5.408;2023-05-10T12:55:04;101337.72;;;17.20;75.23
71764;BME280;59602;52.142;5.408;2023-05-10T12:57:31;101338.09;;;17.22;75.91
71764;BME280;59602;52.142;5.408;2023-05-10T12:59:58;101347.16;;;17.19;74.04
71764;BME280;59602;52.142;5.408;2023-05-10T13:02:24;101342.09;;;17.14;74.70
71764;BME280;59602;52.142;5.408;2023-05-10T13:04:51;101345.22;;;17.16;75.45
71764;BME280;59602;52.142;5.408;2023-05-10T13:07:18;101346.78;;;17.17;76.63
71764;BME280;59602;52.142;5.408;2023-05-10T13:09:44;101347.22;;;17.12;74.14
71764;BME280;59602;52.142;5.408;2023-05-10T13:12:11;101349.66;;;17.10;76.99
71764;BME280;59602;52.142;5.408;2023-05-10T13:14:38;101348.09;;;17.06;75.47
71764;BME280;59602;52.142;5.408;2023-05-10T13:17:06;101358.00;;;16.99;75.47
71764;BME280;59602;52.142;5.408;2023-05-10T13:19:33;101365.16;;;16.90;75.19
71764;BME280;59602;52.142;5.408;2023-05-10T13:22:00;101369.22;;;16.82;76.75
71764;BME280;59602;52.142;5.408;2023-05-10T13:24:27;101368.53;;;16.67;76.78
71764;BME280;59602;52.142;5.408;2023-05-10T13:26:54;101372.66;;;16.48;77.63
71764;BME280;59602;52.142;5.408;2023-05-10T13:29:22;101379.09;;;16.30;78.79
71764;BME280;59602;52.142;5.408;2023-05-10T13:31:49;101389.47;;;16.05;80.22
71764;BME280;59602;52.142;5.408;2023-05-10T13:34:15;101382.22;;;15.80;81.13
71764;BME280;59602;52.142;5.408;2023-05-10T13:36:42;101380.31;;;15.70;83.21
71764;BME280;59602;52.142;5.408;2023-05-10T13:39:09;101389.34;;;15.63;83.24
71764;BME280;59602;52.142;5.408;2023-05-10T13:41:35;101387.00;;;15.58;83.82
71764;BME280;59602;52.142;5.408;2023-05-10T13:44:03;101388.63;;;15.52;84.65
71764;BME280;59602;52.142;5.408;2023-05-10T13:46:29;101388.25;;;15.50;85.00
71764;BME280;59602;52.142;5.408;2023-05-10T13:48:57;101389.09;;;15.32;84.83
71764;BME280;59602;52.142;5.408;2023-05-10T13:51:33;101389.53;;;15.20;84.83
71764;BME280;59602;52.142;5.408;2023-05-10T13:54:00;101393.50;;;15.12;86.34
71764;BME280;59602;52.142;5.408;2023-05-10T13:56:27;101388.78;;;15.12;87.26
71764;BME280;59602;52.142;5.408;2023-05-10T13:58:54;101396.59;;;15.21;87.75
71764;BME280;59602;52.142;5.408;2023-05-10T14:01:20;101396.59;;;15.18;86.43
71764;BME280;59602;52.142;5.408;2023-05-10T14:03:47;101396.59;;;15.21;87.65
71764;BME280;59602;52.142;5.408;2023-05-10T14:06:14;101395.41;;;15.22;87.38
71764;BME280;59602;52.142;5.408;2023-05-10T14:08:41;101393.84;;;15.21;87.51
71764;BME280;59602;52.142;5.408;2023-05-10T14:11:08;101397.78;;;15.17;88.57
71764;BME280;59602;52.142;5.408;2023-05-10T14:13:35;101395.44;;;15.15;89.27
71764;BME280;59602;52.142;5.408;2023-05-10T14:16:01;101399.75;;;15.09;89.34
71764;BME280;59602;52.142;5.408;2023-05-10T14:18:29;101398.59;;;15.06;89.58
71764;BME280;59602;52.142;5.408;2023-05-10T14:20:56;101399.78;;;15.05;89.85
71764;BME280;59602;52.142;5.408;2023-05-10T14:23:24;101392.72;;;15.04;89.86
71764;BME280;59602;52.142;5.408;2023-05-10T14:25:51;101399.78;;;15.02;90.07
71764;BME280;59602;52.142;5.408;2023-05-10T14:28:18;101401.34;;;14.99;90.76
71764;BME280;59602;52.142;5.408;2023-05-10T14:30:46;101403.72;;;14.93;89.44
71764;BME280;59602;52.142;5.408;2023-05-10T14:33:13;101395.13;;;14.91;90.86
71764;BME280;59602;52.142;5.408;2023-05-10T14:35:40;101397.06;;;14.94;91.38
71764;BME280;59602;52.142;5.408;2023-05-10T14:38:07;101400.59;;;14.95;91.61
71764;BME280;59602;52.142;5.408;2023-05-10T14:40:34;101405.28;;;14.91;91.46
71764;BME280;59602;52.142;5.408;2023-05-10T14:43:00;101397.06;;;14.94;91.38
71764;BME280;59602;52.142;5.408;2023-05-10T14:45:27;101396.66;;;15.00;91.75
71764;BME280;59602;52.142;5.408;2023-05-10T14:47:55;101399.81;;;14.94;91.03
71764;BME280;59602;52.142;5.408;2023-05-10T14:50:22;101401.75;;;14.98;92.00
71764;BME280;59602;52.142;5.408;2023-05-10T14:53:02;101397.44;;;15.00;92.23
71764;BME280;59602;52.142;5.408;2023-05-10T14:55:29;101399.78;;;15.02;92.17
71764;BME280;59602;52.142;5.408;2023-05-10T14:57:56;101398.59;;;15.06;92.30
71764;BME280;59602;52.142;5.408;2023-05-10T15:00:23;101396.63;;;15.10;92.09
71764;BME280;59602;52.142;5.408;2023-05-10T15:02:50;101396.25;;;15.12;91.54
71764;BME280;59602;52.142;5.408;2023-05-10T15:05:17;101403.66;;;15.15;92.09
71764;BME280;59602;52.142;5.408;2023-05-10T15:07:44;101400.91;;;15.19;91.90
71764;BME280;59602;52.142;5.408;2023-05-10T15:10:11;101399.72;;;15.20;92.23
71764;BME280;59602;52.142;5.408;2023-05-10T15:12:38;101404.00;;;15.24;92.43
71764;BME280;59602;52.142;5.408;2023-05-10T15:15:05;101407.50;;;15.28;92.14
71764;BME280;59602;52.142;5.408;2023-05-10T15:17:33;101402.41;;;15.34;92.57
71764;BME280;59602;52.142;5.408;2023-05-10T15:20:00;101406.28;;;15.40;92.96
71764;BME280;59602;52.142;5.408;2023-05-10T15:22:29;101404.69;;;15.50;93.15
71764;BME280;59602;52.142;5.408;2023-05-10T15:24:59;101394.84;;;15.56;92.51
71764;BME280;59602;52.142;5.408;2023-05-10T15:27:26;101398.72;;;15.66;92.98
71764;BME280;59602;52.142;5.408;2023-05-10T15:29:53;101400.28;;;15.74;92.06
71764;BME280;59602;52.142;5.408;2023-05-10T15:32:19;101401.41;;;15.80;91.95
71764;BME280;59602;52.142;5.408;2023-05-10T15:34:48;101402.97;;;15.81;90.96
71764;BME280;59602;52.142;5.408;2023-05-10T15:37:14;101403.34;;;15.83;90.45
71764;BME280;59602;52.142;5.408;2023-05-10T15:39:41;101399.81;;;15.86;90.96
71764;BME280;59602;52.142;5.408;2023-05-10T15:42:07;101401.72;;;15.89;91.86
71764;BME280;59602;52.142;5.408;2023-05-10T15:44:34;101404.91;;;15.88;91.05
71764;BME280;59602;52.142;5.408;2023-05-10T15:47:01;101404.91;;;15.88;91.30
71764;BME280;59602;52.142;5.408;2023-05-10T15:49:29;101406.84;;;15.87;91.02
71764;BME280;59602;52.142;5.408;2023-05-10T15:51:55;101407.66;;;15.84;90.35
71764;BME280;59602;52.142;5.408;2023-05-10T15:54:22;101415.06;;;15.87;90.42
71764;BME280;59602;52.142;5.408;2023-05-10T15:56:48;101417.03;;;15.87;90.22
71764;BME280;59602;52.142;5.408;2023-05-10T15:59:15;101423.28;;;15.87;91.16
71764;BME280;59602;52.142;5.408;2023-05-10T16:01:42;101418.19;;;15.89;91.64
71764;BME280;59602;52.142;5.408;2023-05-10T16:04:09;101416.63;;;15.88;91.22
71764;BME280;59602;52.142;5.408;2023-05-10T16:06:36;101419.38;;;15.92;92.04
71764;BME280;59602;52.142;5.408;2023-05-10T16:09:03;101428.75;;;15.94;93.04
71764;BME280;59602;52.142;5.408;2023-05-10T16:11:30;101420.91;;;15.93;91.79
71764;BME280;59602;52.142;5.408;2023-05-10T16:13:56;101426.78;;;15.91;92.10
71764;BME280;59602;52.142;5.408;2023-05-10T16:16:23;101428.38;;;15.89;91.31
71764;BME280;59602;52.142;5.408;2023-05-10T16:18:51;101426.84;;;15.84;91.55
71764;BME280;59602;52.142;5.408;2023-05-10T16:21:17;101425.69;;;15.85;91.83
71764;BME280;59602;52.142;5.408;2023-05-10T16:23:44;101430.34;;;15.85;91.13
71764;BME280;59602;52.142;5.408;2023-05-10T16:26:11;101429.59;;;15.81;91.61
71764;BME280;59602;52.142;5.408;2023-05-10T16:28:38;101426.84;;;15.81;90.64
71764;BME280;59602;52.142;5.408;2023-05-10T16:31:07;101433.53;;;15.83;91.83
71764;BME280;59602;52.142;5.408;2023-05-10T16:33:33;101440.94;;;15.86;91.68
71764;BME280;59602;52.142;5.408;2023-05-10T16:36:00;101435.84;;;15.85;92.16
71764;BME280;59602;52.142;5.408;2023-05-10T16:38:27;101434.69;;;15.82;90.79
71764;BME280;59602;52.142;5.408;2023-05-10T16:40:53;101432.31;;;15.84;91.90
71764;BME280;59602;52.142;5.408;2023-05-10T16:43:21;101437.38;;;15.89;92.61
71764;BME280;59602;52.142;5.408;2023-05-10T16:45:51;101436.22;;;15.90;92.33
71764;BME280;59602;52.142;5.408;2023-05-10T16:48:17;101442.84;;;15.96;92.71
71764;BME280;59602;52.142;5.408;2023-05-10T16:50:44;101434.13;;;16.05;90.52
71764;BME280;59602;52.142;5.408;2023-05-10T16:53:11;101436.03;;;16.15;90.74
71764;BME280;59602;52.142;5.408;2023-05-10T16:55:38;101439.53;;;16.23;89.66
71764;BME280;59602;52.142;5.408;2023-05-10T16:58:04;101436.75;;;16.27;90.03
71764;BME280;59602;52.142;5.408;2023-05-10T17:00:31;101432.41;;;16.29;87.59
71764;BME280;59602;52.142;5.408;2023-05-10T17:02:57;101444.50;;;16.35;88.56
71764;BME280;59602;52.142;5.408;2023-05-10T17:05:25;101447.56;;;16.45;89.60
71764;BME280;59602;52.142;5.408;2023-05-10T17:07:51;101448.72;;;16.47;87.60
71764;BME280;59602;52.142;5.408;2023-05-10T17:10:18;101445.97;;;16.47;87.92
71764;BME280;59602;52.142;5.408;2023-05-10T17:12:45;101443.22;;;16.47;88.54
71764;BME280;59602;52.142;5.408;2023-05-10T17:15:11;101443.28;;;16.44;87.90
71764;BME280;59602;52.142;5.408;2023-05-10T17:17:38;101450.75;;;16.39;87.82
71764;BME280;59602;52.142;5.408;2023-05-10T17:20:05;101453.13;;;16.37;87.45
71764;BME280;59602;52.142;5.408;2023-05-10T17:22:32;101456.31;;;16.32;87.68
71764;BME280;59602;52.142;5.408;2023-05-10T17:32:37;101459.00;;;16.36;90.04
71764;BME280;59602;52.142;5.408;2023-05-10T17:39:01;101467.31;;;16.25;88.64
71764;BME280;59602;52.142;5.408;2023-05-10T17:41:30;101475.19;;;16.23;89.42
71764;BME280;59602;52.142;5.408;2023-05-10T17:44:23;101476.75;;;16.24;88.83
71764;BME280;59602;52.142;5.408;2023-05-10T17:46:57;101479.50;;;16.24;89.81
71764;BME280;59602;52.142;5.408;2023-05-10T17:50:52;101479.53;;;16.17;88.52
71764;BME280;59602;52.142;5.408;2023-05-10T17:52:58;101482.69;;;16.12;87.73
71764;BME280;59602;52.142;5.408;2023-05-10T17:55:29;101489.78;;;16.09;87.34
71764;BME280;59602;52.142;5.408;2023-05-10T17:58:00;101482.72;;;16.08;86.64
71764;BME280;59602;52.142;5.408;2023-05-10T18:00:28;101483.13;;;16.10;86.72
71764;BME280;59602;52.142;5.408;2023-05-10T18:02:55;101490.97;;;16.08;85.73
71764;BME280;59602;52.142;5.408;2023-05-10T18:05:22;101486.69;;;16.04;87.34
71764;BME280;59602;52.142;5.408;2023-05-10T18:07:49;101486.31;;;16.02;87.67
71764;BME280;59602;52.142;5.408;2023-05-10T18:10:19;101491.03;;;15.97;88.43
71764;BME280;59602;52.142;5.408;2023-05-10T18:12:49;101487.94;;;15.92;88.37
71764;BME280;59602;52.142;5.408;2023-05-10T18:15:34;101492.22;;;15.89;88.49
71764;BME280;59602;52.142;5.408;2023-05-10T18:18:01;101499.31;;;15.87;88.30
71764;BME280;59602;52.142;5.408;2023-05-10T18:20:30;101489.91;;;15.84;88.01
71764;BME280;59602;52.142;5.408;2023-05-10T18:22:57;101496.22;;;15.81;87.86
71764;BME280;59602;52.142;5.408;2023-05-10T18:25:55;101492.31;;;15.79;87.82
71764;BME280;59602;52.142;5.408;2023-05-10T18:28:25;101488.81;;;15.74;88.49
71764;BME280;59602;52.142;5.408;2023-05-10T18:30:57;101491.53;;;15.71;88.77
71764;BME280;59602;52.142;5.408;2023-05-10T18:33:45;101490.75;;;15.70;89.76
71764;BME280;59602;52.142;5.408;2023-05-10T18:36:37;101492.31;;;15.68;89.60
71764;BME280;59602;52.142;5.408;2023-05-10T18:39:17;101491.94;;;15.62;89.83